createdAt,value
2018-07-21T00:02:11.416Z,16.83
2018-07-21T00:04:39.925Z,16.83
2018-07-21T00:07:08.426Z,16.87
2018-07-21T00:09:37.073Z,16.88
2018-07-21T00:12:05.779Z,16.92
2018-07-21T00:14:34.271Z,16.95
2018-07-21T00:17:02.945Z,16.97
2018-07-21T00:19:31.490Z,16.98
2018-07-21T00:22:00.104Z,17.00
2018-07-21T00:24:28.898Z,16.99
2018-07-21T00:26:57.503Z,17.13
2018-07-21T00:29:26.179Z,17.17
2018-07-21T00:31:54.694Z,17.20
2018-07-21T00:34:23.281Z,17.24
2018-07-21T00:36:51.890Z,17.30
2018-07-21T00:39:20.494Z,17.33
2018-07-21T00:41:49.078Z,17.36
2018-07-21T00:44:18.167Z,17.40
2018-07-21T00:46:46.859Z,17.40
2018-07-21T00:49:15.378Z,17.42
2018-07-21T00:51:44.066Z,17.43
2018-07-21T00:54:12.566Z,17.45
2018-07-21T00:56:41.221Z,17.45
2018-07-21T00:59:09.751Z,17.45
2018-07-21T01:01:38.289Z,17.46
2018-07-21T01:04:06.939Z,17.47
2018-07-21T01:06:35.464Z,17.49
2018-07-21T01:09:04.883Z,17.49
2018-07-21T01:11:33.455Z,17.48
2018-07-21T01:14:02.085Z,17.48
2018-07-21T01:16:30.735Z,17.41
2018-07-21T01:18:59.296Z,17.49
2018-07-21T01:21:27.944Z,17.48
2018-07-21T01:23:56.625Z,17.50
2018-07-21T01:26:25.413Z,17.51
2018-07-21T01:28:53.942Z,17.52
2018-07-21T01:31:22.991Z,17.53
2018-07-21T01:33:51.631Z,17.56
2018-07-21T01:36:20.167Z,17.59
2018-07-21T01:38:48.839Z,17.59
2018-07-21T01:41:17.628Z,17.63
2018-07-21T01:43:46.198Z,17.62
2018-07-21T01:46:14.903Z,17.63
2018-07-21T01:48:43.518Z,17.63
2018-07-21T01:51:12.082Z,17.66
2018-07-21T01:53:40.747Z,17.67
2018-07-21T01:56:09.374Z,17.66
2018-07-21T01:58:38.015Z,17.67
2018-07-21T02:01:07.110Z,17.66
2018-07-21T02:03:35.746Z,17.67
2018-07-21T02:06:04.378Z,17.67
2018-07-21T02:08:32.961Z,17.68
2018-07-21T02:11:01.650Z,17.68
2018-07-21T02:13:30.251Z,17.69
2018-07-21T02:15:58.917Z,17.70
2018-07-21T02:18:27.510Z,17.73
2018-07-21T02:20:56.104Z,17.73
2018-07-21T02:23:24.718Z,17.74
2018-07-21T02:25:53.229Z,17.71
2018-07-21T02:28:21.738Z,17.73
2018-07-21T02:30:50.424Z,17.74
2018-07-21T02:33:19.011Z,17.74
2018-07-21T02:35:47.685Z,17.73
2018-07-21T02:38:16.291Z,17.72
2018-07-21T02:40:44.868Z,17.73
2018-07-21T02:43:13.534Z,17.73
2018-07-21T02:45:42.201Z,17.71
2018-07-21T02:48:10.707Z,17.72
2018-07-21T02:50:39.288Z,17.69
2018-07-21T02:53:07.910Z,17.69
2018-07-21T02:55:36.549Z,17.68
2018-07-21T02:58:05.077Z,17.67
2018-07-21T03:00:34.544Z,17.69
2018-07-21T03:03:03.151Z,17.69
2018-07-21T03:05:31.743Z,17.70
2018-07-21T03:08:00.394Z,17.69
2018-07-21T03:10:29.990Z,17.70
2018-07-21T03:12:58.574Z,17.69
2018-07-21T03:15:27.175Z,17.66
2018-07-21T03:17:55.824Z,17.65
2018-07-21T03:20:24.428Z,17.67
2018-07-21T03:22:53.003Z,17.68
2018-07-21T03:25:21.611Z,17.69
2018-07-21T03:27:50.275Z,17.68
2018-07-21T03:30:18.959Z,17.68
2018-07-21T03:32:47.857Z,17.71
2018-07-21T03:35:16.463Z,17.73
2018-07-21T03:37:45.731Z,17.76
2018-07-21T03:40:14.519Z,17.76
2018-07-21T03:42:43.103Z,17.80
2018-07-21T03:45:11.686Z,17.82
2018-07-21T03:47:40.290Z,17.84
2018-07-21T03:50:08.875Z,17.85
2018-07-21T03:52:37.503Z,17.87
2018-07-21T03:55:06.277Z,17.92
2018-07-21T03:57:34.854Z,17.93
2018-07-21T04:00:03.557Z,17.91
2018-07-21T04:02:32.280Z,17.96
2018-07-21T04:05:00.877Z,17.99
2018-07-21T04:07:29.507Z,18.02
2018-07-21T04:09:58.133Z,18.04
2018-07-21T04:12:26.716Z,18.07
2018-07-21T04:14:55.246Z,18.10
2018-07-21T04:17:26.631Z,18.14
2018-07-21T04:19:56.100Z,18.17
2018-07-21T04:22:25.798Z,18.20
2018-07-21T04:24:54.851Z,18.25
2018-07-21T04:27:23.507Z,18.24
2018-07-21T04:29:52.938Z,18.24
2018-07-21T04:32:22.037Z,18.26
2018-07-21T04:34:50.720Z,18.27
2018-07-21T04:37:19.347Z,18.32
2018-07-21T04:39:47.985Z,18.35
2018-07-21T04:42:16.498Z,18.32
2018-07-21T04:44:45.101Z,18.33
2018-07-21T04:47:13.647Z,18.36
2018-07-21T04:49:42.414Z,18.37
2018-07-21T04:52:11.003Z,18.45
2018-07-21T04:54:39.603Z,18.51
2018-07-21T04:57:08.272Z,18.54
2018-07-21T04:59:36.853Z,18.59
2018-07-21T05:02:05.485Z,18.65
2018-07-21T05:04:34.035Z,18.66
2018-07-21T05:07:03.307Z,18.70
2018-07-21T05:09:32.106Z,18.76
2018-07-21T05:12:00.792Z,18.81
2018-07-21T05:14:29.477Z,18.80
2018-07-21T05:16:58.086Z,18.85
2018-07-21T05:19:26.745Z,18.89
2018-07-21T05:21:55.295Z,18.93
2018-07-21T05:24:23.915Z,18.95
2018-07-21T05:26:52.494Z,18.90
2018-07-21T05:29:21.004Z,18.94
2018-07-21T05:31:49.627Z,18.96
2018-07-21T05:34:18.243Z,19.05
2018-07-21T05:36:46.826Z,19.11
2018-07-21T05:39:15.439Z,19.19
2018-07-21T05:41:43.956Z,19.24
2018-07-21T05:44:12.489Z,19.31
2018-07-21T05:46:40.986Z,19.39
2018-07-21T05:49:09.789Z,19.48
2018-07-21T05:51:38.426Z,19.58
2018-07-21T05:54:07.172Z,19.57
2018-07-21T05:56:35.774Z,19.54
2018-07-21T05:59:04.431Z,19.58
2018-07-21T06:01:33.065Z,19.63
2018-07-21T06:04:01.579Z,19.69
2018-07-21T06:06:30.170Z,19.69
2018-07-21T06:08:58.831Z,19.81
2018-07-21T06:11:27.451Z,19.89
2018-07-21T06:13:56.080Z,19.92
2018-07-21T06:16:24.665Z,19.98
2018-07-21T06:18:53.301Z,20.03
2018-07-21T06:21:21.933Z,20.10
2018-07-21T06:23:50.862Z,20.13
2018-07-21T06:26:19.422Z,20.18
2018-07-21T06:28:48.089Z,20.29
2018-07-21T06:31:16.618Z,20.34
2018-07-21T06:33:45.152Z,20.42
2018-07-21T06:36:13.627Z,20.33
2018-07-21T06:38:42.119Z,20.42
2018-07-21T06:41:10.901Z,20.30
2018-07-21T06:43:39.894Z,20.23
2018-07-21T06:46:08.993Z,20.30
2018-07-21T06:48:37.930Z,20.36
2018-07-21T06:51:06.620Z,20.38
2018-07-21T06:53:35.194Z,20.40
2018-07-21T06:56:03.730Z,20.44
2018-07-21T06:58:32.416Z,20.54
2018-07-21T07:01:00.892Z,20.55
2018-07-21T07:03:29.483Z,20.50
2018-07-21T07:05:58.165Z,20.51
2018-07-21T07:08:26.849Z,20.47
2018-07-21T07:10:55.595Z,20.55
2018-07-21T07:13:24.267Z,20.64
2018-07-21T07:15:53.011Z,20.81
2018-07-21T07:18:21.610Z,20.89
2018-07-21T07:20:50.276Z,21.00
2018-07-21T07:23:18.803Z,20.94
2018-07-21T07:25:47.420Z,20.92
2018-07-21T07:28:15.966Z,20.93
2018-07-21T07:30:44.561Z,20.99
2018-07-21T07:33:13.190Z,21.03
2018-07-21T07:35:41.718Z,21.09
2018-07-21T07:38:10.291Z,21.04
2018-07-21T07:40:38.939Z,21.08
2018-07-21T07:43:08.141Z,21.16
2018-07-21T07:45:36.720Z,21.22
2018-07-21T07:48:05.405Z,21.30
2018-07-21T07:50:33.988Z,21.36
2018-07-21T07:53:02.671Z,21.30
2018-07-21T07:55:32.690Z,21.34
2018-07-21T07:58:03.056Z,21.45
2018-07-21T08:00:31.797Z,21.34
2018-07-21T08:03:01.643Z,21.40
2018-07-21T08:05:30.709Z,21.40
2018-07-21T08:07:59.291Z,21.20
2018-07-21T08:10:28.280Z,21.19
2018-07-21T08:12:56.970Z,21.18
2018-07-21T08:15:25.490Z,21.08
2018-07-21T08:17:54.131Z,21.06
2018-07-21T08:20:22.936Z,21.12
2018-07-21T08:22:51.505Z,21.38
2018-07-21T08:25:20.108Z,21.50
2018-07-21T08:27:48.696Z,21.53
2018-07-21T08:30:17.459Z,21.60
2018-07-21T08:32:46.759Z,21.64
2018-07-21T08:35:15.306Z,21.72
2018-07-21T08:37:43.930Z,21.52
2018-07-21T08:40:13.330Z,21.49
2018-07-21T08:42:42.075Z,21.56
2018-07-21T08:45:10.748Z,21.57
2018-07-21T08:47:39.383Z,21.69
2018-07-21T08:50:08.274Z,21.73
2018-07-21T08:52:36.959Z,21.65
2018-07-21T08:55:05.791Z,21.66
2018-07-21T08:57:34.431Z,21.71
2018-07-21T09:00:03.113Z,21.77
2018-07-21T09:02:31.799Z,21.74
2018-07-21T09:05:00.403Z,21.72
2018-07-21T09:07:28.979Z,21.74
2018-07-21T09:09:57.591Z,21.74
2018-07-21T09:12:26.234Z,21.83
2018-07-21T09:14:55.667Z,21.88
2018-07-21T09:17:24.235Z,21.86
2018-07-21T09:19:53.430Z,21.78
2018-07-21T09:22:22.163Z,21.83
2018-07-21T09:24:50.722Z,21.86
2018-07-21T09:27:19.328Z,21.80
2018-07-21T09:29:47.881Z,21.79
2018-07-21T09:32:16.512Z,21.86
2018-07-21T09:34:45.515Z,21.82
2018-07-21T09:37:14.111Z,21.87
2018-07-21T09:39:42.897Z,21.80
2018-07-21T09:42:11.411Z,21.72
2018-07-21T09:44:39.898Z,21.81
2018-07-21T09:47:08.543Z,21.74
2018-07-21T09:49:37.597Z,21.67
2018-07-21T09:52:06.343Z,21.75
2018-07-21T09:54:35.314Z,21.93
2018-07-21T09:57:03.846Z,21.91
2018-07-21T09:59:33.813Z,21.89
2018-07-21T10:02:02.317Z,21.89
2018-07-21T10:04:30.979Z,21.85
2018-07-21T10:06:59.664Z,21.71
2018-07-21T10:09:28.279Z,21.78
2018-07-21T10:11:56.932Z,21.77
2018-07-21T10:14:25.619Z,21.92
2018-07-21T10:16:54.246Z,22.04
2018-07-21T10:19:22.885Z,22.12
2018-07-21T10:21:51.498Z,22.24
2018-07-21T10:24:25.255Z,22.37
2018-07-21T10:26:58.979Z,22.46
2018-07-21T10:29:27.662Z,22.43
2018-07-21T10:31:56.245Z,22.44
2018-07-21T10:34:25.040Z,22.54
2018-07-21T10:36:53.653Z,22.61
2018-07-21T10:39:22.355Z,22.71
2018-07-21T10:41:50.884Z,22.57
2018-07-21T10:44:19.466Z,22.60
2018-07-21T10:46:48.152Z,22.68
2018-07-21T10:49:16.678Z,22.69
2018-07-21T10:51:45.327Z,22.64
2018-07-21T10:54:13.922Z,22.61
2018-07-21T10:56:42.998Z,22.65
2018-07-21T10:59:11.689Z,22.48
2018-07-21T11:01:40.366Z,22.49
2018-07-21T11:04:08.978Z,22.58
2018-07-21T11:06:37.576Z,22.69
2018-07-21T11:09:08.812Z,22.79
2018-07-21T11:11:37.462Z,22.78
2018-07-21T11:14:06.239Z,22.93
2018-07-21T11:16:34.833Z,22.89
2018-07-21T11:19:03.432Z,22.99
2018-07-21T11:21:32.023Z,23.17
2018-07-21T11:24:00.686Z,23.33
2018-07-21T11:26:29.217Z,23.45
2018-07-21T11:28:57.850Z,23.36
2018-07-21T11:31:27.411Z,23.46
2018-07-21T11:33:56.274Z,23.53
2018-07-21T11:36:25.106Z,23.43
2018-07-21T11:38:53.922Z,23.45
2018-07-21T11:41:23.122Z,23.51
2018-07-21T11:43:51.754Z,23.42
2018-07-21T11:46:20.391Z,23.38
2018-07-21T11:48:49.018Z,23.28
2018-07-21T11:51:17.619Z,23.33
2018-07-21T11:53:46.174Z,23.57
2018-07-21T11:56:14.718Z,23.67
2018-07-21T11:58:43.460Z,23.70
2018-07-21T12:01:12.090Z,23.70
2018-07-21T12:03:40.591Z,23.77
2018-07-21T12:06:09.261Z,23.79
2018-07-21T12:08:37.943Z,23.92
2018-07-21T12:11:06.523Z,23.90
2018-07-21T12:13:35.248Z,23.92
2018-07-21T12:16:03.894Z,23.91
2018-07-21T12:18:32.395Z,23.73
2018-07-21T12:21:00.958Z,23.69
2018-07-21T12:23:29.483Z,23.57
2018-07-21T12:25:58.068Z,23.59
2018-07-21T12:28:26.644Z,23.65
2018-07-21T12:30:55.391Z,23.60
2018-07-21T12:33:23.904Z,23.55
2018-07-21T12:35:52.493Z,23.50
2018-07-21T12:38:21.046Z,23.62
2018-07-21T12:40:49.536Z,23.67
2018-07-21T12:43:18.139Z,23.57
2018-07-21T12:45:46.785Z,23.52
2018-07-21T12:48:15.386Z,23.36
2018-07-21T12:50:44.003Z,23.39
2018-07-21T12:53:12.534Z,23.45
2018-07-21T12:55:41.036Z,23.41
2018-07-21T12:58:09.666Z,23.50
2018-07-21T13:00:38.386Z,23.59
2018-07-21T13:03:07.276Z,23.58
2018-07-21T13:05:35.858Z,23.65
2018-07-21T13:08:04.483Z,23.66
2018-07-21T13:10:33.075Z,23.62
2018-07-21T13:13:01.660Z,23.70
2018-07-21T13:15:30.334Z,23.78
2018-07-21T13:17:59.534Z,23.42
2018-07-21T13:20:28.278Z,23.44
2018-07-21T13:22:56.963Z,23.41
2018-07-21T13:25:25.545Z,23.49
2018-07-21T13:27:54.438Z,23.37
2018-07-21T13:30:23.691Z,23.41
2018-07-21T13:32:52.318Z,23.42
2018-07-21T13:35:20.906Z,23.47
2018-07-21T13:37:49.478Z,23.47
2018-07-21T13:40:18.067Z,23.40
2018-07-21T13:42:46.638Z,23.52
2018-07-21T13:45:15.170Z,23.56
2018-07-21T13:47:43.754Z,23.71
2018-07-21T13:50:12.398Z,23.74
2018-07-21T13:52:40.981Z,23.78
2018-07-21T13:55:09.584Z,23.92
2018-07-21T13:57:38.249Z,23.93
2018-07-21T14:00:07.397Z,23.94
2018-07-21T14:02:36.030Z,23.90
2018-07-21T14:05:04.695Z,23.94
2018-07-21T14:07:33.223Z,24.02
2018-07-21T14:10:01.851Z,24.02
2018-07-21T14:12:30.551Z,24.07
2018-07-21T14:14:59.074Z,24.04
2018-07-21T14:17:27.782Z,23.85
2018-07-21T14:19:56.417Z,23.69
2018-07-21T14:22:25.002Z,23.76
2018-07-21T14:24:53.514Z,23.70
2018-07-21T14:27:22.115Z,23.29
2018-07-21T14:29:50.758Z,23.43
2018-07-21T14:32:19.331Z,23.74
2018-07-21T14:34:48.020Z,23.87
2018-07-21T14:37:16.614Z,24.04
2018-07-21T14:39:45.179Z,24.14
2018-07-21T14:42:13.736Z,24.20
2018-07-21T14:44:42.418Z,24.30
2018-07-21T14:47:11.245Z,24.23
2018-07-21T14:49:39.939Z,24.25
2018-07-21T14:52:08.523Z,24.34
2018-07-21T14:54:37.228Z,24.42
2018-07-21T14:57:05.756Z,24.35
2018-07-21T14:59:34.243Z,24.24
2018-07-21T15:02:02.838Z,24.29
2018-07-21T15:04:32.042Z,24.28
2018-07-21T15:07:00.602Z,24.41
2018-07-21T15:09:29.219Z,24.58
2018-07-21T15:11:57.989Z,24.49
2018-07-21T15:14:26.498Z,24.41
2018-07-21T15:16:55.258Z,24.26
2018-07-21T15:19:23.886Z,24.28
2018-07-21T15:21:52.527Z,24.12
2018-07-21T15:24:21.133Z,24.05
2018-07-21T15:26:49.787Z,24.07
2018-07-21T15:29:19.197Z,24.26
2018-07-21T15:31:47.714Z,24.28
2018-07-21T15:34:16.295Z,24.01
2018-07-21T15:36:44.804Z,23.86
2018-07-21T15:39:13.375Z,23.89
2018-07-21T15:41:42.008Z,23.89
2018-07-21T15:44:10.595Z,24.04
2018-07-21T15:46:39.182Z,24.02
2018-07-21T15:49:07.698Z,23.89
2018-07-21T15:51:36.251Z,23.64
2018-07-21T15:54:04.908Z,23.84
2018-07-21T15:56:33.506Z,24.03
2018-07-21T15:59:02.107Z,23.94
2018-07-21T16:01:30.703Z,23.77
2018-07-21T16:03:59.310Z,23.68
2018-07-21T16:06:27.892Z,23.85
2018-07-21T16:08:56.522Z,24.02
2018-07-21T16:11:25.039Z,24.06
2018-07-21T16:13:53.588Z,23.95
2018-07-21T16:16:22.078Z,23.79
2018-07-21T16:18:50.678Z,23.74
2018-07-21T16:21:19.330Z,23.59
2018-07-21T16:23:47.859Z,23.43
2018-07-21T16:26:16.419Z,23.46
2018-07-21T16:28:45.083Z,23.37
2018-07-21T16:31:13.566Z,23.54
2018-07-21T16:33:42.251Z,23.59
2018-07-21T16:36:10.832Z,23.63
2018-07-21T16:38:39.416Z,23.63
2018-07-21T16:41:08.306Z,23.63
2018-07-21T16:43:36.904Z,23.70
2018-07-21T16:46:05.677Z,23.65
2018-07-21T16:48:34.258Z,23.57
2018-07-21T16:51:02.755Z,23.51
2018-07-21T16:53:31.351Z,23.44
2018-07-21T16:56:00.725Z,23.38
2018-07-21T16:58:29.491Z,23.31
2018-07-21T17:00:58.175Z,23.08
2018-07-21T17:03:27.321Z,23.07
2018-07-21T17:05:56.080Z,23.01
2018-07-21T17:08:24.699Z,22.99
2018-07-21T17:10:53.275Z,23.00
2018-07-21T17:13:21.843Z,23.04
2018-07-21T17:15:50.521Z,22.94
2018-07-21T17:18:19.198Z,22.80
2018-07-21T17:20:47.738Z,22.68
2018-07-21T17:23:16.291Z,22.56
2018-07-21T17:25:44.947Z,22.49
2018-07-21T17:28:13.475Z,22.47
2018-07-21T17:30:42.074Z,22.54
2018-07-21T17:33:10.703Z,22.57
2018-07-21T17:35:39.244Z,22.65
2018-07-21T17:38:08.764Z,22.66
2018-07-21T17:40:37.287Z,22.43
2018-07-21T17:43:05.868Z,22.39
2018-07-21T17:45:34.531Z,22.35
2018-07-21T17:48:03.221Z,22.27
2018-07-21T17:50:32.524Z,22.38
2018-07-21T17:53:01.118Z,22.33
2018-07-21T17:55:30.296Z,22.11
2018-07-21T17:57:58.875Z,22.13
2018-07-21T18:00:27.462Z,22.15
2018-07-21T18:02:56.045Z,22.14
2018-07-21T18:05:24.781Z,22.11
2018-07-21T18:07:53.518Z,22.04
2018-07-21T18:10:22.050Z,21.86
2018-07-21T18:12:50.683Z,21.78
2018-07-21T18:15:19.368Z,21.66
2018-07-21T18:17:48.112Z,21.60
2018-07-21T18:20:16.740Z,21.58
2018-07-21T18:22:45.354Z,21.51
2018-07-21T18:25:13.962Z,21.43
2018-07-21T18:27:42.591Z,21.35
2018-07-21T18:30:11.174Z,21.25
2018-07-21T18:32:39.759Z,21.16
2018-07-21T18:35:08.376Z,21.09
2018-07-21T18:37:37.013Z,21.01
2018-07-21T18:40:05.786Z,20.93
2018-07-21T18:42:34.334Z,20.90
2018-07-21T18:45:02.921Z,20.81
2018-07-21T18:47:31.560Z,20.87
2018-07-21T18:50:00.144Z,20.89
2018-07-21T18:52:28.739Z,20.81
2018-07-21T18:54:57.310Z,20.81
2018-07-21T18:57:25.842Z,20.68
2018-07-21T18:59:54.416Z,20.64
2018-07-21T19:02:23.058Z,20.64
2018-07-21T19:04:51.663Z,20.56
2018-07-21T19:07:20.266Z,20.50
2018-07-21T19:09:48.910Z,20.43
2018-07-21T19:12:22.716Z,20.40
2018-07-21T19:14:51.239Z,20.33
2018-07-21T19:17:19.835Z,20.27
2018-07-21T19:19:53.685Z,20.17
2018-07-21T19:22:22.270Z,20.11
2018-07-21T19:24:50.902Z,20.08
2018-07-21T19:27:24.758Z,20.04
2018-07-21T19:29:53.444Z,19.98
2018-07-21T19:32:27.147Z,19.94
2018-07-21T19:34:55.731Z,19.93
2018-07-21T19:37:29.640Z,19.91
2018-07-21T19:39:58.277Z,19.86
2018-07-21T19:42:26.834Z,19.78
2018-07-21T19:44:55.386Z,19.73
2018-07-21T19:47:24.068Z,19.70
2018-07-21T19:49:52.655Z,19.65
2018-07-21T19:52:21.202Z,19.58
2018-07-21T19:54:49.858Z,19.56
2018-07-21T19:57:18.423Z,19.53
2018-07-21T19:59:47.047Z,19.09
2018-07-21T20:02:16.287Z,19.48
2018-07-21T20:04:44.770Z,19.43
2018-07-21T20:07:13.913Z,19.40
2018-07-21T20:09:42.650Z,19.37
2018-07-21T20:12:11.342Z,19.30
2018-07-21T20:14:39.979Z,19.26
2018-07-21T20:17:09.888Z,19.23
2018-07-21T20:19:38.847Z,19.19
2018-07-21T20:22:07.614Z,19.16
2018-07-21T20:24:37.271Z,19.10
2018-07-21T20:27:06.701Z,19.07
2018-07-21T20:29:35.442Z,19.02
2018-07-21T20:32:03.942Z,18.95
2018-07-21T20:34:32.778Z,18.94
2018-07-21T20:37:01.874Z,18.90
2018-07-21T20:39:30.562Z,18.85
2018-07-21T20:41:59.246Z,18.82
2018-07-21T20:44:28.544Z,18.82
2018-07-21T20:46:57.232Z,18.77
2018-07-21T20:49:25.854Z,18.76
2018-07-21T20:51:54.370Z,18.69
2018-07-21T20:54:22.875Z,18.70
2018-07-21T20:56:51.423Z,18.69
2018-07-21T20:59:19.985Z,18.66
2018-07-21T21:01:48.686Z,18.65
2018-07-21T21:04:17.309Z,18.62
2018-07-21T21:06:45.813Z,18.60
2018-07-21T21:09:14.393Z,18.60
2018-07-21T21:11:42.964Z,18.57
2018-07-21T21:14:11.625Z,18.53
2018-07-21T21:16:40.328Z,18.50
2018-07-21T21:19:08.958Z,18.48
2018-07-21T21:21:38.210Z,18.49
2018-07-21T21:24:06.895Z,18.47
2018-07-21T21:26:35.538Z,18.45
2018-07-21T21:29:04.163Z,18.42
2018-07-21T21:31:32.848Z,18.38
2018-07-21T21:34:01.435Z,18.37
2018-07-21T21:36:30.220Z,18.34
2018-07-21T21:38:58.801Z,18.31
2018-07-21T21:41:27.384Z,18.29
2018-07-21T21:43:56.013Z,18.26
2018-07-21T21:46:24.653Z,18.27
2018-07-21T21:48:53.238Z,18.26
2018-07-21T21:51:21.923Z,18.25
2018-07-21T21:53:50.546Z,18.22
2018-07-21T21:56:19.047Z,18.22
2018-07-21T21:58:48.108Z,18.20
2018-07-21T22:01:17.065Z,18.17
2018-07-21T22:03:46.064Z,18.16
2018-07-21T22:06:14.563Z,18.14
2018-07-21T22:08:43.233Z,18.12
2018-07-21T22:11:12.006Z,18.11
2018-07-21T22:13:40.523Z,18.09
2018-07-21T22:16:09.182Z,18.09
2018-07-21T22:18:37.868Z,18.06
2018-07-21T22:21:06.451Z,18.07
2018-07-21T22:23:35.136Z,18.02
2018-07-21T22:26:03.821Z,18.00
2018-07-21T22:28:32.507Z,17.99
2018-07-21T22:31:01.015Z,17.98
2018-07-21T22:33:29.676Z,17.96
2018-07-21T22:35:58.360Z,17.95
2018-07-21T22:38:26.981Z,17.94
2018-07-21T22:40:55.626Z,17.94
2018-07-21T22:43:24.336Z,17.93
2018-07-21T22:45:53.054Z,17.94
2018-07-21T22:48:21.648Z,17.93
2018-07-21T22:50:50.269Z,17.90
2018-07-21T22:53:18.778Z,17.90
2018-07-21T22:55:47.455Z,17.87
2018-07-21T22:58:16.013Z,17.86
2018-07-21T23:00:44.804Z,17.82
2018-07-21T23:03:13.390Z,17.81
2018-07-21T23:05:41.979Z,17.80
2018-07-21T23:08:11.307Z,17.79
2018-07-21T23:10:40.015Z,17.77
2018-07-21T23:13:08.772Z,17.76
2018-07-21T23:15:37.380Z,17.75
2018-07-21T23:18:06.047Z,17.75
2018-07-21T23:20:34.689Z,17.74
2018-07-21T23:23:03.379Z,17.76
2018-07-21T23:25:32.007Z,17.76
2018-07-21T23:28:00.646Z,17.73
2018-07-21T23:30:30.253Z,17.72
2018-07-21T23:32:58.938Z,17.72
2018-07-21T23:35:27.441Z,17.70
2018-07-21T23:37:56.044Z,17.68
2018-07-21T23:40:24.687Z,17.66
2018-07-21T23:42:53.494Z,17.65
2018-07-21T23:45:22.719Z,17.66
2018-07-21T23:47:51.462Z,17.63
2018-07-21T23:50:20.704Z,17.63
2018-07-21T23:52:50.366Z,17.63
2018-07-21T23:55:18.977Z,17.66
2018-07-21T23:57:47.550Z,17.69
